Camden, Illinois
Current Conditions -  °F | °C
As of 4:35 PM on Monday 24 Nov 2014 (Local Time) from KMQB Reporting Station
Light Snow Light Snow  
Wind Chill: 17°   Ceiling: 4100
Heat Index: 30°   Visibility: 7mi
Dew Point: 27°   Wind: 21mph
Humidity: 90%   Direction: 270°W
Pressure: 29.78"   Gusts: 26mph
Location:  40.15°N, 90.77°W
Report Text: KMQB 242235Z AUTO 27018G23KT 7SM -SN SCT015 SCT024 OVC041 M01/M03 A2978 RMK AO2 T10131027
Loading
Personal Weather Stations






























Interactive Weather Map New forecast layout! Learn more

10-Day Weather Forecast

Advertisements
Track Severe Weather on mobile